Time,TemperatureF,DewpointF,PressureIn,WindDirection,WindDirectionDegrees,WindSpeedMPH,WindSpeedGustMPH,Humidity,HourlyPrecipIn,Conditions,Clouds,dailyrainin,SoftwareType,DateUTC
2013-08-04 00:01:00,62.9,56.6,29.90,West,268,2.3,5.8,80,0.00,FEW,,0.00,WeatherDisplay:10.37,2013-08-04 04:01:00,
2013-08-04 00:02:00,62.8,56.2,29.90,WSW,256,2.8,5.8,79,0.00,CLR,,0.00,WeatherDisplay:10.37,2013-08-04 04:02:00,
2013-08-04 00:07:00,62.6,55.6,29.90,WNW,286,3.5,6.9,78,0.00,CLR,,0.00,WeatherDisplay:10.37,2013-08-04 04:07:00,
2013-08-04 00:12:00,62.6,55.6,29.90,WNW,291,2.6,5.8,78,0.00,CLR,,0.00,WeatherDisplay:10.37,2013-08-04 04:12:00,
2013-08-04 00:17:00,62.5,55.6,29.90,WNW,283,2.0,3.0,78,0.00,CLR,,0.00,WeatherDisplay:10.37,2013-08-04 04:17:00,
2013-08-04 00:22:00,62.5,55.5,29.91,WNW,282,0.0,3.0,78,0.00,CLR,,0.00,WeatherDisplay:10.37,2013-08-04 04:22:00,
2013-08-04 00:27:00,62.2,55.3,29.91,WNW,284,1.0,3.0,78,0.00,CLR,,0.00,WeatherDisplay:10.37,2013-08-04 04:27:00,
2013-08-04 00:32:00,62.0,55.0,29.91,WNW,283,0.0,3.0,78,0.00,CLR,,0.00,WeatherDisplay:10.37,2013-08-04 04:32:00,
2013-08-04 00:37:00,61.7,55.1,29.91,WNW,282,2.2,3.5,79,0.00,CLR,,0.00,WeatherDisplay:10.37,2013-08-04 04:37:00,
2013-08-04 00:42:00,61.5,54.9,29.91,WNW,282,0.0,2.0,79,0.00,CLR,,0.00,WeatherDisplay:10.37,2013-08-04 04:42:00,
2013-08-04 00:47:00,61.4,55.1,29.91,WNW,282,0.0,0.0,80,0.00,CLR,,0.00,WeatherDisplay:10.37,2013-08-04 04:47:00,
2013-08-04 00:52:00,61.0,54.8,29.92,West,281,2.6,4.6,80,0.00,CLR,,0.00,WeatherDisplay:10.37,2013-08-04 04:52:00,
2013-08-04 00:57:00,60.9,54.7,29.91,West,280,2.0,6.0,80,0.00,CLR,,0.00,WeatherDisplay:10.37,2013-08-04 04:57:00,
2013-08-04 01:02:00,60.8,54.9,29.91,West,277,2.2,5.8,81,0.00,CLR,,0.00,WeatherDisplay:10.37,2013-08-04 05:02:00,
2013-08-04 01:07:00,60.8,54.6,29.91,West,277,2.2,3.5,80,0.00,CLR,,0.00,WeatherDisplay:10.37,2013-08-04 05:07:00,
2013-08-04 01:12:00,60.9,55.4,29.91,West,277,1.0,3.5,82,0.00,CLR,,0.00,WeatherDisplay:10.37,2013-08-04 05:12:00,
2013-08-04 01:17:00,60.8,55.3,29.91,West,276,0.4,3.5,82,0.00,CLR,,0.00,WeatherDisplay:10.37,2013-08-04 05:17:00,
2013-08-04 01:22:00,60.6,55.1,29.92,West,276,0.3,2.3,82,0.00,CLR,,0.00,WeatherDisplay:10.37,2013-08-04 05:22:00,
2013-08-04 01:27:00,60.3,54.8,29.92,West,276,0.1,1.2,82,0.00,CLR,,0.00,WeatherDisplay:10.37,2013-08-04 05:27:00,
2013-08-04 01:32:00,60.1,54.9,29.92,West,276,0.0,0.0,83,0.00,CLR,,0.00,WeatherDisplay:10.37,2013-08-04 05:32:00,
2013-08-04 01:37:00,59.8,55.0,29.92,West,276,0.2,1.2,84,0.00,CLR,,0.00,WeatherDisplay:10.37,2013-08-04 05:37:00,
2013-08-04 01:42:00,59.5,54.7,29.92,West,276,2.2,3.5,84,0.00,CLR,,0.00,WeatherDisplay:10.37,2013-08-04 05:42:00,
2013-08-04 01:47:00,59.5,55.0,29.92,West,276,2.0,3.5,85,0.00,CLR,,0.00,WeatherDisplay:10.37,2013-08-04 05:47:00,
2013-08-04 01:52:00,59.4,54.9,29.92,West,276,0.0,0.0,85,0.00,CLR,,0.00,WeatherDisplay:10.37,2013-08-04 05:52:00,
2013-08-04 01:57:00,59.4,54.9,29.92,West,276,1.2,2.3,85,0.00,CLR,,0.00,WeatherDisplay:10.37,2013-08-04 05:57:00,
2013-08-04 02:02:00,59.1,54.6,29.92,West,276,0.4,3.0,85,0.00,CLR,,0.00,WeatherDisplay:10.37,2013-08-04 06:02:00,
2013-08-04 02:07:00,59.1,54.6,29.92,West,276,0.0,0.0,85,0.00,CLR,,0.00,WeatherDisplay:10.37,2013-08-04 06:07:00,
2013-08-04 02:12:00,59.1,54.6,29.92,West,276,0.3,2.3,85,0.00,CLR,,0.00,WeatherDisplay:10.37,2013-08-04 06:12:00,
2013-08-04 02:17:00,59.0,54.2,29.92,West,276,0.4,2.3,84,0.00,CLR,,0.00,WeatherDisplay:10.37,2013-08-04 06:17:00,
2013-08-04 02:22:00,59.0,54.5,29.92,West,276,0.2,2.3,85,0.00,CLR,,0.00,WeatherDisplay:10.37,2013-08-04 06:22:00,
2013-08-04 02:27:00,59.0,54.8,29.92,West,276,2.0,3.5,86,0.00,CLR,,0.00,WeatherDisplay:10.37,2013-08-04 06:27:00,
2013-08-04 02:32:00,59.0,54.8,29.92,West,276,0.0,3.5,86,0.00,CLR,,0.00,WeatherDisplay:10.37,2013-08-04 06:32:00,
2013-08-04 02:37:00,58.9,54.7,29.92,West,276,0.5,3.5,86,0.00,CLR,,0.00,WeatherDisplay:10.37,2013-08-04 06:37:00,
2013-08-04 02:42:00,58.6,54.7,29.92,West,276,0.1,1.2,87,0.00,CLR,,0.00,WeatherDisplay:10.37,2013-08-04 06:42:00,
2013-08-04 02:47:00,58.4,54.5,29.92,West,276,0.6,0.0,87,0.00,CLR,,0.00,WeatherDisplay:10.37,2013-08-04 06:47:00,
2013-08-04 02:52:00,58.4,54.5,29.92,West,276,0.0,0.0,87,0.00,CLR,,0.00,WeatherDisplay:10.37,2013-08-04 06:52:00,
2013-08-04 02:57:00,58.3,54.4,29.92,West,276,0.0,0.0,87,0.00,CLR,,0.00,WeatherDisplay:10.37,2013-08-04 06:57:00,
2013-08-04 03:02:00,58.2,54.3,29.92,West,276,0.0,0.0,87,0.00,CLR,,0.00,WeatherDisplay:10.37,2013-08-04 07:02:00,
2013-08-04 03:07:00,58.1,54.6,29.91,West,276,1.1,3.5,88,0.00,CLR,,0.00,WeatherDisplay:10.37,2013-08-04 07:07:00,
2013-08-04 03:12:00,58.0,54.5,29.92,West,276,0.0,0.0,88,0.00,CLR,,0.00,WeatherDisplay:10.37,2013-08-04 07:12:00,
2013-08-04 03:17:00,57.7,54.2,29.92,West,276,0.0,0.0,88,0.00,CLR,,0.00,WeatherDisplay:10.37,2013-08-04 07:17:00,
2013-08-04 03:22:00,57.4,53.9,29.92,West,276,0.0,0.0,88,0.00,CLR,,0.00,WeatherDisplay:10.37,2013-08-04 07:22:00,
2013-08-04 03:27:00,57.2,53.7,29.91,West,276,0.0,0.0,88,0.00,CLR,,0.00,WeatherDisplay:10.37,2013-08-04 07:27:00,
2013-08-04 03:32:00,57.1,53.9,29.92,West,276,0.8,3.5,89,0.00,CLR,,0.00,WeatherDisplay:10.37,2013-08-04 07:32:00,
2013-08-04 03:37:00,57.2,54.3,29.92,West,276,1.1,2.3,90,0.00,CLR,,0.00,WeatherDisplay:10.37,2013-08-04 07:37:00,
2013-08-04 03:42:00,57.5,54.6,29.92,West,276,0.0,2.3,90,0.00,CLR,,0.00,WeatherDisplay:10.37,2013-08-04 07:42:00,
2013-08-04 03:47:00,57.5,54.6,29.92,West,276,0.7,3.5,90,0.00,CLR,,0.00,WeatherDisplay:10.37,2013-08-04 07:47:00,
2013-08-04 03:52:00,57.7,54.8,29.92,West,276,0.0,2.3,90,0.00,CLR,,0.00,WeatherDisplay:10.37,2013-08-04 07:52:00,
2013-08-04 03:57:00,57.6,54.7,29.92,West,276,0.0,0.0,90,0.00,CLR,,0.00,WeatherDisplay:10.37,2013-08-04 07:57:00,
2013-08-04 04:03:00,57.5,54.6,29.92,West,276,0.0,0.0,90,0.00,CLR,,0.00,WeatherDisplay:10.37,2013-08-04 08:03:00,
2013-08-04 04:08:00,57.3,54.1,29.92,West,276,0.0,1.2,89,0.00,CLR,,0.00,WeatherDisplay:10.37,2013-08-04 08:08:00,
2013-08-04 04:13:00,57.1,54.2,29.92,West,276,0.6,2.3,90,0.00,CLR,,0.00,WeatherDisplay:10.37,2013-08-04 08:13:00,
2013-08-04 04:17:00,57.0,54.1,29.92,West,276,0.0,0.0,90,0.00,CLR,,0.00,WeatherDisplay:10.37,2013-08-04 08:17:00,
2013-08-04 04:23:00,56.9,54.0,29.91,West,276,0.0,0.0,90,0.00,CLR,,0.00,WeatherDisplay:10.37,2013-08-04 08:23:00,
2013-08-04 04:28:00,57.1,54.2,29.91,West,276,0.7,3.5,90,0.00,CLR,,0.00,WeatherDisplay:10.37,2013-08-04 08:28:00,
2013-08-04 04:33:00,57.3,54.7,29.91,West,276,0.0,0.0,91,0.00,CLR,,0.00,WeatherDisplay:10.37,2013-08-04 08:33:00,
2013-08-04 04:38:00,57.5,54.9,29.91,West,276,0.0,0.0,91,0.00,CLR,,0.00,WeatherDisplay:10.37,2013-08-04 08:38:00,
2013-08-04 04:43:00,57.5,54.9,29.92,West,276,0.0,2.3,91,0.00,CLR,,0.00,WeatherDisplay:10.37,2013-08-04 08:43:00,
2013-08-04 04:48:00,57.5,54.9,29.92,West,276,0.0,0.0,91,0.00,CLR,,0.00,WeatherDisplay:10.37,2013-08-04 08:48:00,
2013-08-04 04:53:00,57.5,54.9,29.91,West,276,0.5,2.3,91,0.00,CLR,,0.00,WeatherDisplay:10.37,2013-08-04 08:53:00,
2013-08-04 04:58:00,57.6,55.0,29.92,West,273,0.0,3.5,91,0.00,CLR,,0.00,WeatherDisplay:10.37,2013-08-04 08:58:00,
2013-08-04 05:03:00,57.7,55.1,29.92,West,273,1.3,2.3,91,0.00,CLR,,0.00,WeatherDisplay:10.37,2013-08-04 09:03:00,
2013-08-04 05:08:00,57.8,55.2,29.92,West,273,0.3,3.5,91,0.00,CLR,,0.00,WeatherDisplay:10.37,2013-08-04 09:08:00,
2013-08-04 05:12:00,57.9,55.3,29.92,West,273,0.5,2.3,91,0.00,CLR,,0.00,WeatherDisplay:10.37,2013-08-04 09:12:00,
2013-08-04 05:18:00,58.0,55.4,29.92,West,273,0.0,0.0,91,0.00,CLR,,0.00,WeatherDisplay:10.37,2013-08-04 09:18:00,
2013-08-04 05:23:00,58.0,55.4,29.92,West,273,0.0,1.2,91,0.00,CLR,,0.00,WeatherDisplay:10.37,2013-08-04 09:23:00,
2013-08-04 05:28:00,58.0,55.4,29.92,West,273,0.0,0.0,91,0.00,CLR,,0.00,WeatherDisplay:10.37,2013-08-04 09:28:00,
2013-08-04 05:33:00,57.9,55.3,29.92,West,273,0.0,0.0,91,0.00,CLR,,0.00,WeatherDisplay:10.37,2013-08-04 09:33:00,
2013-08-04 05:38:00,57.8,55.2,29.92,West,273,0.0,0.0,91,0.00,CLR,,0.00,WeatherDisplay:10.37,2013-08-04 09:38:00,
2013-08-04 05:43:00,57.8,55.2,29.92,West,273,0.0,0.0,91,0.00,CLR,,0.00,WeatherDisplay:10.37,2013-08-04 09:43:00,
2013-08-04 05:48:00,57.6,55.0,29.92,West,273,0.1,1.2,91,0.00,CLR,,0.00,WeatherDisplay:10.37,2013-08-04 09:48:00,
2013-08-04 05:53:00,57.4,54.8,29.92,West,273,0.2,0.0,91,0.00,CLR,,0.00,WeatherDisplay:10.37,2013-08-04 09:53:00,
2013-08-04 05:58:00,57.3,55.0,29.93,West,273,0.0,0.0,92,0.00,CLR,,0.00,WeatherDisplay:10.37,2013-08-04 09:58:00,
2013-08-04 06:03:00,57.3,55.0,29.93,West,273,0.7,3.5,92,0.00,BKN,,0.00,WeatherDisplay:10.37,2013-08-04 10:03:00,
2013-08-04 06:08:00,57.3,55.0,29.93,West,273,0.1,1.2,92,0.00,BKN,,0.00,WeatherDisplay:10.37,2013-08-04 10:08:00,
2013-08-04 06:13:00,57.4,55.1,29.93,West,273,0.0,0.0,92,0.00,BKN,,0.00,WeatherDisplay:10.37,2013-08-04 10:13:00,
2013-08-04 06:18:00,57.2,54.9,29.93,West,273,0.0,0.0,92,0.00,BKN,,0.00,WeatherDisplay:10.37,2013-08-04 10:18:00,
2013-08-04 06:23:00,57.1,54.8,29.93,West,273,0.0,0.0,92,0.00,BKN,,0.00,WeatherDisplay:10.37,2013-08-04 10:23:00,
2013-08-04 06:28:00,56.9,54.6,29.93,West,273,0.0,0.0,92,0.00,BKN,,0.00,WeatherDisplay:10.37,2013-08-04 10:28:00,
2013-08-04 06:33:00,56.8,54.5,29.93,West,273,0.0,0.0,92,0.00,BKN,,0.00,WeatherDisplay:10.37,2013-08-04 10:33:00,
2013-08-04 06:38:00,56.6,54.3,29.93,West,273,0.0,0.0,92,0.00,BKN,,0.00,WeatherDisplay:10.37,2013-08-04 10:38:00,
2013-08-04 06:43:00,56.5,54.2,29.93,West,273,0.0,0.0,92,0.00,BKN,,0.00,WeatherDisplay:10.37,2013-08-04 10:43:00,
2013-08-04 06:48:00,56.7,54.4,29.93,West,273,0.0,0.0,92,0.00,BKN,,0.00,WeatherDisplay:10.37,2013-08-04 10:48:00,
2013-08-04 06:53:00,57.0,54.7,29.93,West,273,0.0,0.0,92,0.00,BKN,,0.00,WeatherDisplay:10.37,2013-08-04 10:53:00,
2013-08-04 06:58:00,57.3,55.3,29.93,West,273,0.0,0.0,93,0.00,BKN,,0.00,WeatherDisplay:10.37,2013-08-04 10:58:00,
2013-08-04 07:03:00,57.4,55.1,29.93,West,273,0.0,0.0,92,0.00,CLR,,0.00,WeatherDisplay:10.37,2013-08-04 11:03:00,
2013-08-04 07:08:00,57.7,55.7,29.93,West,273,0.0,0.0,93,0.00,CLR,,0.00,WeatherDisplay:10.37,2013-08-04 11:08:00,
2013-08-04 07:13:00,58.0,56.0,29.94,West,273,0.0,0.0,93,0.00,SCT,,0.00,WeatherDisplay:10.37,2013-08-04 11:13:00,
2013-08-04 07:18:00,58.5,56.5,29.94,West,273,0.6,3.5,93,0.00,SCT,,0.00,WeatherDisplay:10.37,2013-08-04 11:18:00,
2013-08-04 07:23:00,59.0,57.0,29.94,West,273,0.8,1.2,93,0.00,SCT,,0.00,WeatherDisplay:10.37,2013-08-04 11:23:00,
2013-08-04 07:28:00,59.0,57.0,29.94,West,273,0.1,2.3,93,0.00,SCT,,0.00,WeatherDisplay:10.37,2013-08-04 11:28:00,
2013-08-04 07:33:00,59.4,57.4,29.94,West,273,0.0,3.5,93,0.00,SCT,,0.00,WeatherDisplay:10.37,2013-08-04 11:33:00,
2013-08-04 07:38:00,59.7,57.7,29.94,West,273,0.0,0.0,93,0.00,SCT,,0.00,WeatherDisplay:10.37,2013-08-04 11:38:00,
2013-08-04 07:43:00,60.1,58.1,29.94,West,272,2.6,5.8,93,0.00,SCT,,0.00,WeatherDisplay:10.37,2013-08-04 11:43:00,
2013-08-04 07:48:00,60.5,58.5,29.95,WNW,288,3.8,6.9,93,0.00,SCT,,0.00,WeatherDisplay:10.37,2013-08-04 11:48:00,
2013-08-04 07:53:00,60.9,58.6,29.95,WNW,290,4.9,6.9,92,0.00,SCT,,0.00,WeatherDisplay:10.37,2013-08-04 11:53:00,
2013-08-04 07:58:00,61.2,58.9,29.95,WNW,291,4.0,5.8,92,0.00,SCT,,0.00,WeatherDisplay:10.37,2013-08-04 11:58:00,
2013-08-04 08:03:00,61.3,59.0,29.95,WNW,285,3.2,6.9,92,0.00,BKN,,0.00,WeatherDisplay:10.37,2013-08-04 12:03:00,
2013-08-04 08:08:00,61.3,58.7,29.95,WNW,296,4.6,6.9,91,0.00,BKN,,0.00,WeatherDisplay:10.37,2013-08-04 12:08:00,
2013-08-04 08:13:00,61.5,58.8,29.95,WNW,286,4.0,5.8,91,0.00,BKN,,0.00,WeatherDisplay:10.37,2013-08-04 12:13:00,
2013-08-04 08:18:00,61.7,59.0,29.95,WNW,295,2.8,3.5,91,0.00,BKN,,0.00,WeatherDisplay:10.37,2013-08-04 12:18:00,
2013-08-04 08:23:00,61.9,59.2,29.95,West,274,4.2,5.8,91,0.00,BKN,,0.00,WeatherDisplay:10.37,2013-08-04 12:23:00,
2013-08-04 08:28:00,61.9,59.5,29.95,WNW,288,4.6,5.8,92,0.00,BKN,,0.00,WeatherDisplay:10.37,2013-08-04 12:28:00,
2013-08-04 08:33:00,62.0,59.0,29.95,WNW,302,5.6,5.6,90,0.00,BKN,,0.00,WeatherDisplay:10.37,2013-08-04 12:33:00,
2013-08-04 08:38:00,62.2,58.9,29.95,NW,325,4.9,6.9,89,0.00,BKN,,0.00,WeatherDisplay:10.37,2013-08-04 12:38:00,
2013-08-04 08:43:00,62.5,59.2,29.96,WNW,296,5.3,10.4,89,0.00,BKN,,0.00,WeatherDisplay:10.37,2013-08-04 12:43:00,
2013-08-04 08:48:00,62.9,59.3,29.96,NW,315,2.9,10.4,88,0.00,BKN,,0.00,WeatherDisplay:10.37,2013-08-04 12:48:00,
2013-08-04 08:53:00,63.2,59.3,29.96,NW,304,5.1,8.1,87,0.00,BKN,,0.00,WeatherDisplay:10.37,2013-08-04 12:53:00,
2013-08-04 08:58:00,63.7,59.8,29.96,West,277,7.3,9.2,87,0.00,BKN,,0.00,WeatherDisplay:10.37,2013-08-04 12:58:00,
2013-08-04 09:03:00,63.7,59.1,29.96,NW,325,3.9,6.9,85,0.00,BKN,,0.00,WeatherDisplay:10.37,2013-08-04 13:03:00,
2013-08-04 09:08:00,63.4,58.8,29.96,WNW,298,3.6,9.2,85,0.00,BKN,,0.00,WeatherDisplay:10.37,2013-08-04 13:08:00,
2013-08-04 09:14:00,63.2,58.9,29.96,WNW,297,4.7,6.9,86,0.00,BKN,,0.00,WeatherDisplay:10.37,2013-08-04 13:14:00,
2013-08-04 09:19:00,63.2,58.9,29.96,NW,320,4.7,8.1,86,0.00,BKN,,0.00,WeatherDisplay:10.37,2013-08-04 13:19:00,
2013-08-04 09:23:00,63.6,59.3,29.96,WNW,288,5.9,6.9,86,0.00,BKN,,0.00,WeatherDisplay:10.37,2013-08-04 13:23:00,
2013-08-04 09:29:00,64.0,59.4,29.96,NW,320,4.1,5.8,85,0.00,BKN,,0.00,WeatherDisplay:10.37,2013-08-04 13:29:00,
2013-08-04 09:34:00,64.3,59.4,29.96,NNW,337,2.3,4.6,84,0.00,BKN,,0.00,WeatherDisplay:10.37,2013-08-04 13:34:00,
2013-08-04 09:38:00,64.3,59.0,29.97,NW,309,6.0,9.2,83,0.00,BKN,,0.00,WeatherDisplay:10.37,2013-08-04 13:38:00,
2013-08-04 09:43:00,64.7,59.8,29.97,WNW,296,4.6,8.1,84,0.00,BKN,,0.00,WeatherDisplay:10.37,2013-08-04 13:43:00,
2013-08-04 09:49:00,64.8,59.2,29.97,NNW,342,6.5,10.4,82,0.00,BKN,,0.00,WeatherDisplay:10.37,2013-08-04 13:49:00,
2013-08-04 09:54:00,64.9,58.9,29.97,NNW,342,4.6,11.5,81,0.00,BKN,,0.00,WeatherDisplay:10.37,2013-08-04 13:54:00,
2013-08-04 09:59:00,64.8,58.5,29.97,WNW,295,6.3,8.0,80,0.00,BKN,,0.00,WeatherDisplay:10.37,2013-08-04 13:59:00,
2013-08-04 10:04:00,64.8,58.1,29.97,WNW,303,7.5,9.2,79,0.00,BKN,,0.00,WeatherDisplay:10.37,2013-08-04 14:04:00,
2013-08-04 10:09:00,64.7,58.0,29.97,NNW,334,3.7,9.2,79,0.00,BKN,,0.00,WeatherDisplay:10.37,2013-08-04 14:09:00,
2013-08-04 10:14:00,64.8,58.1,29.97,NW,319,2.5,5.8,79,0.00,BKN,,0.00,WeatherDisplay:10.37,2013-08-04 14:14:00,
2013-08-04 10:19:00,64.8,57.4,29.97,NW,317,5.3,9.2,77,0.00,BKN,,0.00,WeatherDisplay:10.37,2013-08-04 14:19:00,
2013-08-04 10:24:00,64.8,57.4,29.97,NW,319,6.0,10.0,77,0.00,BKN,,0.00,WeatherDisplay:10.37,2013-08-04 14:24:00,
2013-08-04 10:29:00,65.1,58.4,29.98,NW,305,5.6,5.8,79,0.00,BKN,,0.00,WeatherDisplay:10.37,2013-08-04 14:29:00,
2013-08-04 10:34:00,65.2,57.4,29.98,WNW,295,6.7,11.5,76,0.00,BKN,,0.00,WeatherDisplay:10.37,2013-08-04 14:34:00,
2013-08-04 10:38:00,65.2,58.2,29.98,NW,307,4.1,9.2,78,0.00,BKN,,0.00,WeatherDisplay:10.37,2013-08-04 14:38:00,
2013-08-04 10:44:00,65.3,57.9,29.98,NW,309,5.0,8.0,77,0.00,BKN,,0.00,WeatherDisplay:10.37,2013-08-04 14:44:00,
2013-08-04 10:48:00,65.1,57.3,29.98,WNW,293,5.0,8.1,76,0.00,BKN,,0.00,WeatherDisplay:10.37,2013-08-04 14:48:00,
2013-08-04 10:49:00,65.1,57.4,29.98,WNW,302,5.0,9.0,76,0.00,BKN,,0.00,WeatherDisplay:10.37,2013-08-04 14:49:00,
2013-08-04 10:53:00,65.3,57.5,29.98,NW,320,6.0,12.0,76,0.00,BKN,,0.00,WeatherDisplay:10.37,2013-08-04 14:53:00,
2013-08-04 10:59:00,66.0,58.9,29.98,NNW,342,2.3,5.8,78,0.00,BKN,,0.00,WeatherDisplay:10.37,2013-08-04 14:59:00,
2013-08-04 11:04:00,66.3,57.4,29.99,WNW,289,6.7,12.7,73,0.00,BKN,,0.00,WeatherDisplay:10.37,2013-08-04 15:04:00,
2013-08-04 11:09:00,66.4,57.9,29.98,North,11,4.4,8.1,74,0.00,BKN,,0.00,WeatherDisplay:10.37,2013-08-04 15:09:00,
2013-08-04 11:13:00,67.0,57.7,29.99,West,281,4.9,5.8,72,0.00,BKN,,0.00,WeatherDisplay:10.37,2013-08-04 15:13:00,
2013-08-04 11:18:00,66.7,57.8,29.99,NW,317,3.0,8.0,73,0.00,BKN,,0.00,WeatherDisplay:10.37,2013-08-04 15:18:00,
2013-08-04 11:24:00,66.5,57.6,29.99,NNW,338,5.8,6.9,73,0.00,BKN,,0.00,WeatherDisplay:10.37,2013-08-04 15:24:00,
2013-08-04 11:29:00,66.5,57.2,29.99,NW,309,7.0,12.0,72,0.00,BKN,,0.00,WeatherDisplay:10.37,2013-08-04 15:29:00,
2013-08-04 11:34:00,67.2,57.5,29.99,NNW,333,6.0,8.1,71,0.00,BKN,,0.00,WeatherDisplay:10.37,2013-08-04 15:34:00,
2013-08-04 11:39:00,67.7,57.2,30.00,WNW,298,7.6,9.2,69,0.00,BKN,,0.00,WeatherDisplay:10.37,2013-08-04 15:39:00,
2013-08-04 11:44:00,67.6,57.5,30.00,WSW,257,4.6,9.2,70,0.00,BKN,,0.00,WeatherDisplay:10.37,2013-08-04 15:44:00,
2013-08-04 11:48:00,67.1,56.5,29.99,WNW,299,9.0,10.0,69,0.00,BKN,,0.00,WeatherDisplay:10.37,2013-08-04 15:48:00,
2013-08-04 11:53:00,66.7,57.8,29.99,NW,322,4.5,9.2,73,0.00,BKN,,0.00,WeatherDisplay:10.37,2013-08-04 15:53:00,
2013-08-04 11:59:00,66.8,57.1,29.99,WNW,302,7.0,12.0,71,0.00,BKN,,0.00,WeatherDisplay:10.37,2013-08-04 15:59:00,
2013-08-04 12:04:00,67.5,57.4,29.99,NE,39,5.2,9.2,70,0.00,SCT,,0.00,WeatherDisplay:10.37,2013-08-04 16:04:00,
2013-08-04 12:09:00,68.1,57.9,29.99,NNW,335,6.7,8.1,70,0.00,SCT,,0.00,WeatherDisplay:10.37,2013-08-04 16:09:00,
2013-08-04 12:14:00,68.4,59.1,29.98,NNW,334,5.0,9.0,72,0.00,SCT,,0.00,WeatherDisplay:10.37,2013-08-04 16:14:00,
2013-08-04 12:19:00,68.2,57.2,29.99,WSW,258,6.1,11.5,68,0.00,SCT,,0.00,WeatherDisplay:10.37,2013-08-04 16:19:00,
2013-08-04 12:24:00,67.3,57.2,29.98,North,5,4.4,6.9,70,0.00,SCT,,0.00,WeatherDisplay:10.37,2013-08-04 16:24:00,
2013-08-04 12:29:00,67.5,58.2,29.98,NW,318,3.0,8.0,72,0.00,SCT,,0.00,WeatherDisplay:10.37,2013-08-04 16:29:00,
2013-08-04 12:34:00,67.7,55.9,29.98,WNW,286,7.8,15.0,66,0.00,SCT,,0.00,WeatherDisplay:10.37,2013-08-04 16:34:00,
2013-08-04 12:39:00,68.0,56.6,29.98,NW,313,6.5,11.5,67,0.00,SCT,,0.00,WeatherDisplay:10.37,2013-08-04 16:39:00,
2013-08-04 12:43:00,68.6,57.6,29.98,NW,315,6.0,10.0,68,0.00,SCT,,0.00,WeatherDisplay:10.37,2013-08-04 16:43:00,
2013-08-04 12:49:00,68.8,57.8,29.98,WSW,252,5.8,9.2,68,0.00,SCT,,0.00,WeatherDisplay:10.37,2013-08-04 16:49:00,
2013-08-04 12:54:00,68.4,56.2,29.98,WNW,289,8.3,13.8,65,0.00,SCT,,0.00,WeatherDisplay:10.37,2013-08-04 16:54:00,
2013-08-04 12:59:00,68.3,57.7,29.98,WNW,282,6.0,9.0,69,0.00,SCT,,0.00,WeatherDisplay:10.37,2013-08-04 16:59:00,
2013-08-04 13:03:00,68.0,55.4,29.98,WNW,293,8.3,15.0,64,0.00,SCT,,0.00,WeatherDisplay:10.37,2013-08-04 17:03:00,
2013-08-04 13:09:00,68.4,56.2,29.98,WNW,303,7.6,8.1,65,0.00,SCT,,0.00,WeatherDisplay:10.37,2013-08-04 17:09:00,
2013-08-04 13:14:00,68.2,56.0,29.98,West,275,6.2,11.5,65,0.00,SCT,,0.00,WeatherDisplay:10.37,2013-08-04 17:14:00,
2013-08-04 13:19:00,68.2,56.8,29.98,WNW,286,5.4,8.1,67,0.00,SCT,,0.00,WeatherDisplay:10.37,2013-08-04 17:19:00,
2013-08-04 13:24:00,68.1,57.1,29.98,NW,309,5.0,8.0,68,0.00,SCT,,0.00,WeatherDisplay:10.37,2013-08-04 17:24:00,
2013-08-04 13:29:00,68.3,56.9,29.98,WNW,289,5.9,9.2,67,0.00,SCT,,0.00,WeatherDisplay:10.37,2013-08-04 17:29:00,
2013-08-04 13:34:00,68.4,57.8,29.98,WNW,288,6.3,12.0,69,0.00,SCT,,0.00,WeatherDisplay:10.37,2013-08-04 17:34:00,
2013-08-04 13:38:00,68.5,56.7,29.98,West,273,8.1,12.7,66,0.00,SCT,,0.00,WeatherDisplay:10.37,2013-08-04 17:38:00,
2013-08-04 13:44:00,68.6,57.2,29.98,West,277,8.7,15.0,67,0.00,SCT,,0.00,WeatherDisplay:10.37,2013-08-04 17:44:00,
2013-08-04 13:49:00,68.9,57.9,29.98,West,273,1.8,6.9,68,0.00,SCT,,0.00,WeatherDisplay:10.37,2013-08-04 17:49:00,
2013-08-04 13:53:00,69.3,57.9,29.98,WNW,300,6.0,8.0,67,0.00,SCT,,0.00,WeatherDisplay:10.37,2013-08-04 17:53:00,
2013-08-04 13:59:00,69.6,58.2,29.98,WNW,284,7.3,11.5,67,0.00,SCT,,0.00,WeatherDisplay:10.37,2013-08-04 17:59:00,
2013-08-04 14:04:00,69.6,56.9,29.98,West,279,9.1,11.5,64,0.00,SCT,,0.00,WeatherDisplay:10.37,2013-08-04 18:04:00,
2013-08-04 14:09:00,69.2,56.9,29.98,WNW,284,4.5,11.5,65,0.00,SCT,,0.00,WeatherDisplay:10.37,2013-08-04 18:09:00,
2013-08-04 14:14:00,69.0,56.7,29.99,WNW,299,7.0,9.0,65,0.00,SCT,,0.00,WeatherDisplay:10.37,2013-08-04 18:14:00,
2013-08-04 14:19:00,69.0,56.7,29.99,NNW,334,4.7,11.5,65,0.00,SCT,,0.00,WeatherDisplay:10.37,2013-08-04 18:19:00,
2013-08-04 14:24:00,68.8,57.0,29.99,NW,311,6.0,11.0,66,0.00,SCT,,0.00,WeatherDisplay:10.37,2013-08-04 18:24:00,
2013-08-04 14:29:00,68.7,56.5,29.99,WNW,303,7.0,9.0,65,0.00,SCT,,0.00,WeatherDisplay:10.37,2013-08-04 18:29:00,
2013-08-04 14:34:00,68.8,56.6,29.99,West,267,8.4,12.7,65,0.00,SCT,,0.00,WeatherDisplay:10.37,2013-08-04 18:34:00,
2013-08-04 14:39:00,68.3,56.1,29.99,WNW,290,7.0,9.0,65,0.00,SCT,,0.00,WeatherDisplay:10.37,2013-08-04 18:39:00,
2013-08-04 14:44:00,68.8,57.0,29.98,West,271,7.5,10.4,66,0.00,SCT,,0.00,WeatherDisplay:10.37,2013-08-04 18:44:00,
2013-08-04 14:48:00,69.4,56.3,29.98,WNW,284,8.0,12.0,63,0.00,SCT,,0.00,WeatherDisplay:10.37,2013-08-04 18:48:00,
2013-08-04 14:54:00,69.4,56.3,29.98,WNW,289,9.0,13.0,63,0.00,SCT,,0.00,WeatherDisplay:10.37,2013-08-04 18:54:00,
2013-08-04 14:58:00,69.3,55.3,29.98,West,280,9.1,15.0,61,0.00,SCT,,0.00,WeatherDisplay:10.37,2013-08-04 18:58:00,
2013-08-04 15:03:00,69.5,57.6,29.98,NW,317,4.1,11.5,66,0.00,BKN,,0.00,WeatherDisplay:10.37,2013-08-04 19:03:00,
2013-08-04 15:09:00,69.3,55.3,29.98,WNW,298,9.2,16.1,61,0.00,BKN,,0.00,WeatherDisplay:10.37,2013-08-04 19:09:00,
2013-08-04 15:13:00,69.0,56.3,29.98,WNW,282,10.3,19.6,64,0.00,BKN,,0.00,WeatherDisplay:10.37,2013-08-04 19:13:00,
2013-08-04 15:19:00,69.6,56.0,29.98,WNW,284,8.7,13.8,62,0.00,BKN,,0.00,WeatherDisplay:10.37,2013-08-04 19:19:00,
2013-08-04 15:24:00,69.7,56.1,29.98,West,273,7.0,12.7,62,0.00,BKN,,0.00,WeatherDisplay:10.37,2013-08-04 19:24:00,
2013-08-04 15:29:00,69.4,56.3,29.98,WNW,294,8.7,12.7,63,0.00,BKN,,0.00,WeatherDisplay:10.37,2013-08-04 19:29:00,
2013-08-04 15:34:00,70.0,57.7,29.98,WNW,294,5.4,11.5,65,0.00,BKN,,0.00,WeatherDisplay:10.37,2013-08-04 19:34:00,
2013-08-04 15:39:00,70.3,56.7,29.98,WSW,248,7.3,17.3,62,0.00,BKN,,0.00,WeatherDisplay:10.37,2013-08-04 19:39:00,
2013-08-04 15:44:00,70.1,56.5,29.98,WSW,250,8.2,12.7,62,0.00,BKN,,0.00,WeatherDisplay:10.37,2013-08-04 19:44:00,
2013-08-04 15:49:00,70.1,56.5,29.98,West,279,4.2,8.1,62,0.00,BKN,,0.00,WeatherDisplay:10.37,2013-08-04 19:49:00,
2013-08-04 15:54:00,70.3,56.7,29.98,NNW,334,6.8,12.7,62,0.00,BKN,,0.00,WeatherDisplay:10.37,2013-08-04 19:54:00,
2013-08-04 15:59:00,70.7,57.0,29.98,WNW,282,6.1,10.0,62,0.00,BKN,,0.00,WeatherDisplay:10.37,2013-08-04 19:59:00,
2013-08-04 16:04:00,71.0,56.9,29.98,West,262,8.3,13.8,61,0.00,SCT,,0.00,WeatherDisplay:10.37,2013-08-04 20:04:00,
2013-08-04 16:09:00,71.2,57.5,29.98,NW,306,8.4,11.5,62,0.00,SCT,,0.00,WeatherDisplay:10.37,2013-08-04 20:09:00,
2013-08-04 16:14:00,70.9,56.3,29.98,NNW,342,5.1,11.5,60,0.00,SCT,,0.00,WeatherDisplay:10.37,2013-08-04 20:14:00,
2013-08-04 16:19:00,71.1,57.0,29.98,NW,315,5.5,9.2,61,0.00,SCT,,0.00,WeatherDisplay:10.37,2013-08-04 20:19:00,
2013-08-04 16:24:00,71.6,56.0,29.98,NNW,338,7.1,9.2,58,0.00,SCT,,0.00,WeatherDisplay:10.37,2013-08-04 20:24:00,
2013-08-04 16:29:00,71.7,55.7,29.98,NW,325,5.6,11.5,57,0.00,SCT,,0.00,WeatherDisplay:10.37,2013-08-04 20:29:00,
2013-08-04 16:34:00,71.4,55.9,29.98,NNW,336,4.4,11.5,58,0.00,SCT,,0.00,WeatherDisplay:10.37,2013-08-04 20:34:00,
2013-08-04 16:39:00,71.2,56.1,29.98,NW,315,7.7,15.0,59,0.00,SCT,,0.00,WeatherDisplay:10.37,2013-08-04 20:39:00,
2013-08-04 16:44:00,71.2,56.6,29.98,North,360,6.5,11.5,60,0.00,SCT,,0.00,WeatherDisplay:10.37,2013-08-04 20:44:00,
2013-08-04 16:49:00,71.2,55.7,29.98,NW,323,4.2,10.4,58,0.00,SCT,,0.00,WeatherDisplay:10.37,2013-08-04 20:49:00,
2013-08-04 16:54:00,71.3,57.2,29.98,NW,306,5.7,9.2,61,0.00,SCT,,0.00,WeatherDisplay:10.37,2013-08-04 20:54:00,
2013-08-04 16:59:00,71.2,55.7,29.98,NNW,329,7.5,13.8,58,0.00,SCT,,0.00,WeatherDisplay:10.37,2013-08-04 20:59:00,
2013-08-04 17:04:00,71.2,55.7,29.98,NW,326,3.7,6.9,58,0.00,SCT,,0.00,WeatherDisplay:10.37,2013-08-04 21:04:00,
2013-08-04 17:09:00,71.3,55.3,29.98,North,5,6.7,11.5,57,0.00,SCT,,0.00,WeatherDisplay:10.37,2013-08-04 21:09:00,
2013-08-04 17:14:00,71.2,55.7,29.98,NW,311,3.7,8.1,58,0.00,SCT,,0.00,WeatherDisplay:10.37,2013-08-04 21:14:00,
2013-08-04 17:19:00,71.5,55.9,29.98,North,350,4.2,8.1,58,0.00,SCT,,0.00,WeatherDisplay:10.37,2013-08-04 21:19:00,
2013-08-04 17:24:00,71.5,55.9,29.98,North,10,4.4,9.2,58,0.00,SCT,,0.00,WeatherDisplay:10.37,2013-08-04 21:24:00,
2013-08-04 17:29:00,71.5,55.9,29.98,West,279,2.8,5.8,58,0.00,SCT,,0.00,WeatherDisplay:10.37,2013-08-04 21:29:00,
2013-08-04 17:34:00,71.1,55.1,29.98,NNE,33,3.4,8.1,57,0.00,SCT,,0.00,WeatherDisplay:10.37,2013-08-04 21:34:00,
2013-08-04 17:39:00,70.8,56.2,29.98,North,355,2.8,7.0,60,0.00,SCT,,0.00,WeatherDisplay:10.37,2013-08-04 21:39:00,
2013-08-04 17:44:00,70.8,55.3,29.98,NW,314,0.9,9.2,58,0.00,SCT,,0.00,WeatherDisplay:10.37,2013-08-04 21:44:00,
2013-08-04 17:49:00,71.0,55.9,29.97,NNW,337,3.0,8.0,59,0.00,SCT,,0.00,WeatherDisplay:10.37,2013-08-04 21:49:00,
2013-08-04 17:54:00,71.2,56.6,29.97,NW,326,2.7,3.5,60,0.00,SCT,,0.00,WeatherDisplay:10.37,2013-08-04 21:54:00,
2013-08-04 17:59:00,71.4,55.9,29.98,NNW,342,4.9,8.1,58,0.00,SCT,,0.00,WeatherDisplay:10.37,2013-08-04 21:59:00,
2013-08-04 18:04:00,71.5,56.4,29.98,NW,323,2.9,5.8,59,0.00,SCT,,0.00,WeatherDisplay:10.37,2013-08-04 22:04:00,
2013-08-04 18:09:00,71.5,57.3,29.98,NNW,340,3.5,8.1,61,0.00,SCT,,0.00,WeatherDisplay:10.37,2013-08-04 22:09:00,
2013-08-04 18:14:00,71.3,55.8,29.98,NNW,334,7.4,12.7,58,0.00,SCT,,0.00,WeatherDisplay:10.37,2013-08-04 22:14:00,
2013-08-04 18:19:00,70.8,56.2,29.98,North,360,5.0,6.9,60,0.00,SCT,,0.00,WeatherDisplay:10.37,2013-08-04 22:19:00,
2013-08-04 18:24:00,70.5,55.5,29.98,NNW,337,4.2,6.9,59,0.00,SCT,,0.00,WeatherDisplay:10.37,2013-08-04 22:24:00,
2013-08-04 18:28:00,70.4,56.3,29.98,NNW,340,6.7,9.2,61,0.00,SCT,,0.00,WeatherDisplay:10.37,2013-08-04 22:28:00,
2013-08-04 18:34:00,69.8,55.7,29.98,North,5,6.2,11.5,61,0.00,SCT,,0.00,WeatherDisplay:10.37,2013-08-04 22:34:00,
2013-08-04 18:38:00,69.4,54.9,29.99,North,11,5.6,10.4,60,0.00,SCT,,0.00,WeatherDisplay:10.37,2013-08-04 22:38:00,
2013-08-04 18:44:00,68.9,54.0,29.99,NNE,19,6.6,10.4,59,0.00,SCT,,0.00,WeatherDisplay:10.37,2013-08-04 22:44:00,
2013-08-04 18:49:00,68.4,53.5,29.99,North,355,4.6,8.1,59,0.00,SCT,,0.00,WeatherDisplay:10.37,2013-08-04 22:49:00,
2013-08-04 18:54:00,68.3,53.9,29.99,NNW,346,5.3,10.4,60,0.00,SCT,,0.00,WeatherDisplay:10.37,2013-08-04 22:54:00,
2013-08-04 18:59:00,68.3,53.9,29.99,North,355,2.4,4.6,60,0.00,SCT,,0.00,WeatherDisplay:10.37,2013-08-04 22:59:00,
2013-08-04 19:04:00,68.3,53.9,29.99,NW,317,3.6,9.2,60,0.00,SCT,,0.00,WeatherDisplay:10.37,2013-08-04 23:04:00,
2013-08-04 19:09:00,68.1,52.8,29.99,NW,325,4.6,9.2,58,0.00,SCT,,0.00,WeatherDisplay:10.37,2013-08-04 23:09:00,
2013-08-04 19:14:00,68.0,52.7,29.99,NE,36,3.7,5.8,58,0.00,SCT,,0.00,WeatherDisplay:10.37,2013-08-04 23:14:00,
2013-08-04 19:19:00,67.9,52.1,29.99,North,349,0.6,5.0,57,0.00,SCT,,0.00,WeatherDisplay:10.37,2013-08-04 23:19:00,
2013-08-04 19:24:00,67.7,51.9,30.00,NW,321,4.1,5.8,57,0.00,SCT,,0.00,WeatherDisplay:10.37,2013-08-04 23:24:00,
2013-08-04 19:29:00,67.5,51.2,30.00,NNE,15,4.6,8.1,56,0.00,SCT,,0.00,WeatherDisplay:10.37,2013-08-04 23:29:00,
2013-08-04 19:34:00,67.2,51.0,30.00,North,355,1.3,3.5,56,0.00,SCT,,0.00,WeatherDisplay:10.37,2013-08-04 23:34:00,
2013-08-04 19:39:00,67.0,51.3,30.00,North,355,1.7,5.0,57,0.00,SCT,,0.00,WeatherDisplay:10.37,2013-08-04 23:39:00,
2013-08-04 19:44:00,66.9,51.2,30.00,NW,325,3.0,4.6,57,0.00,SCT,,0.00,WeatherDisplay:10.37,2013-08-04 23:44:00,
2013-08-04 19:49:00,66.7,51.0,30.00,NNW,327,2.9,5.0,57,0.00,SCT,,0.00,WeatherDisplay:10.37,2013-08-04 23:49:00,
2013-08-04 19:54:00,66.6,50.9,30.01,NNW,344,1.9,5.8,57,0.00,SCT,,0.00,WeatherDisplay:10.37,2013-08-04 23:54:00,
2013-08-04 19:59:00,66.4,51.2,30.01,NW,326,0.1,1.2,58,0.00,SCT,,0.00,WeatherDisplay:10.37,2013-08-04 23:59:00,
2013-08-04 20:04:00,66.1,50.9,30.01,North,349,0.6,3.5,58,0.00,SCT,,0.00,WeatherDisplay:10.37,2013-08-05 00:04:00,
2013-08-04 20:09:00,65.7,51.0,30.01,North,349,0.0,0.0,59,0.00,SCT,,0.00,WeatherDisplay:10.37,2013-08-05 00:09:00,
2013-08-04 20:14:00,65.2,51.0,30.01,North,349,0.5,1.2,60,0.00,SCT,,0.00,WeatherDisplay:10.37,2013-08-05 00:14:00,
2013-08-04 20:19:00,64.8,51.0,30.01,North,349,0.8,3.5,61,0.00,SCT,,0.00,WeatherDisplay:10.37,2013-08-05 00:19:00,
2013-08-04 20:24:00,64.3,51.4,30.01,North,349,0.0,0.0,63,0.00,SCT,,0.00,WeatherDisplay:10.37,2013-08-05 00:24:00,
2013-08-04 20:29:00,63.9,51.5,30.01,North,349,0.0,0.0,64,0.00,SCT,,0.00,WeatherDisplay:10.37,2013-08-05 00:29:00,
2013-08-04 20:34:00,63.3,53.3,30.01,North,349,0.0,0.0,70,0.00,SCT,,0.00,WeatherDisplay:10.37,2013-08-05 00:34:00,
2013-08-04 20:39:00,62.5,53.3,30.01,North,349,0.0,0.0,72,0.00,SCT,,0.00,WeatherDisplay:10.37,2013-08-05 00:39:00,
2013-08-04 20:44:00,61.6,53.6,30.01,North,349,0.0,0.0,75,0.00,SCT,,0.00,WeatherDisplay:10.37,2013-08-05 00:44:00,
2013-08-04 20:49:00,60.7,53.1,30.01,North,349,0.0,0.0,76,0.00,SCT,,0.00,WeatherDisplay:10.37,2013-08-05 00:49:00,
2013-08-04 20:54:00,59.9,53.4,30.02,North,349,0.0,0.0,79,0.00,SCT,,0.00,WeatherDisplay:10.37,2013-08-05 00:54:00,
2013-08-04 20:59:00,59.0,53.2,30.02,North,349,0.0,0.0,81,0.00,SCT,,0.00,WeatherDisplay:10.37,2013-08-05 00:59:00,
2013-08-04 21:04:00,58.8,53.3,30.02,North,349,0.0,0.0,82,0.00,SCT,,0.00,WeatherDisplay:10.37,2013-08-05 01:04:00,
2013-08-04 21:09:00,58.1,53.0,30.02,North,349,0.0,0.0,83,0.00,SCT,,0.00,WeatherDisplay:10.37,2013-08-05 01:09:00,
2013-08-04 21:14:00,57.6,52.8,30.02,North,349,0.0,0.0,84,0.00,SCT,,0.00,WeatherDisplay:10.37,2013-08-05 01:14:00,
2013-08-04 21:19:00,57.1,52.6,30.02,North,349,0.0,0.0,85,0.00,SCT,,0.00,WeatherDisplay:10.37,2013-08-05 01:19:00,
2013-08-04 21:24:00,56.6,52.5,30.03,North,349,0.0,0.0,86,0.00,SCT,,0.00,WeatherDisplay:10.37,2013-08-05 01:24:00,
2013-08-04 21:29:00,56.2,52.4,30.02,North,349,0.0,0.0,87,0.00,SCT,,0.00,WeatherDisplay:10.37,2013-08-05 01:29:00,
2013-08-04 21:34:00,55.9,52.1,30.03,North,349,0.0,0.0,87,0.00,SCT,,0.00,WeatherDisplay:10.37,2013-08-05 01:34:00,
2013-08-04 21:39:00,55.5,51.7,30.03,North,349,0.0,0.0,87,0.00,SCT,,0.00,WeatherDisplay:10.37,2013-08-05 01:39:00,
2013-08-04 21:44:00,55.1,51.3,30.03,North,349,0.0,0.0,87,0.00,SCT,,0.00,WeatherDisplay:10.37,2013-08-05 01:44:00,
2013-08-04 21:49:00,54.8,51.3,30.03,North,349,0.0,0.0,88,0.00,SCT,,0.00,WeatherDisplay:10.37,2013-08-05 01:49:00,
2013-08-04 21:54:00,54.6,51.4,30.03,North,349,0.0,0.0,89,0.00,SCT,,0.00,WeatherDisplay:10.37,2013-08-05 01:54:00,
2013-08-04 21:59:00,54.6,51.4,30.03,North,349,0.0,0.0,89,0.00,SCT,,0.00,WeatherDisplay:10.37,2013-08-05 01:59:00,
2013-08-04 22:04:00,54.5,51.3,30.03,North,349,0.0,0.0,89,0.00,SCT,,0.00,WeatherDisplay:10.37,2013-08-05 02:04:00,
2013-08-04 22:09:00,54.2,51.0,30.03,North,349,0.0,0.0,89,0.00,SCT,,0.00,WeatherDisplay:10.37,2013-08-05 02:09:00,
2013-08-04 22:14:00,54.0,50.8,30.03,North,349,0.0,0.0,89,0.00,SCT,,0.00,WeatherDisplay:10.37,2013-08-05 02:14:00,
2013-08-04 22:19:00,53.9,51.0,30.03,North,349,0.0,0.0,90,0.00,SCT,,0.00,WeatherDisplay:10.37,2013-08-05 02:19:00,
2013-08-04 22:25:00,53.9,51.0,30.03,North,349,0.0,0.0,90,0.00,SCT,,0.00,WeatherDisplay:10.37,2013-08-05 02:25:00,
2013-08-04 22:30:00,53.9,51.3,30.03,North,349,0.0,0.0,91,0.00,SCT,,0.00,WeatherDisplay:10.37,2013-08-05 02:30:00,
2013-08-04 22:35:00,53.9,51.3,30.03,North,349,0.0,0.0,91,0.00,SCT,,0.00,WeatherDisplay:10.37,2013-08-05 02:35:00,
2013-08-04 22:40:00,53.8,51.2,30.03,North,349,0.0,0.0,91,0.00,SCT,,0.00,WeatherDisplay:10.37,2013-08-05 02:40:00,
2013-08-04 22:45:00,53.7,51.1,30.03,North,349,0.0,0.0,91,0.00,SCT,,0.00,WeatherDisplay:10.37,2013-08-05 02:45:00,
2013-08-04 22:50:00,53.6,51.0,30.03,North,349,0.0,0.0,91,0.00,SCT,,0.00,WeatherDisplay:10.37,2013-08-05 02:50:00,
2013-08-04 22:55:00,53.5,50.9,30.02,North,349,0.0,0.0,91,0.00,SCT,,0.00,WeatherDisplay:10.37,2013-08-05 02:55:00,
2013-08-04 23:00:00,53.3,50.7,30.02,North,349,0.0,0.0,91,0.00,SCT,,0.00,WeatherDisplay:10.37,2013-08-05 03:00:00,
2013-08-04 23:04:00,53.3,50.7,30.03,North,349,0.0,0.0,91,0.00,FEW,,0.00,WeatherDisplay:10.37,2013-08-05 03:04:00,
2013-08-04 23:10:00,53.2,50.6,30.03,North,349,0.0,0.0,91,0.00,FEW,,0.00,WeatherDisplay:10.37,2013-08-05 03:10:00,
2013-08-04 23:15:00,53.1,50.5,30.03,North,349,0.0,0.0,91,0.00,FEW,,0.00,WeatherDisplay:10.37,2013-08-05 03:15:00,
2013-08-04 23:19:00,53.0,50.7,30.03,North,349,0.0,0.0,92,0.00,FEW,,0.00,WeatherDisplay:10.37,2013-08-05 03:19:00,
2013-08-04 23:25:00,52.9,50.6,30.03,North,349,0.0,0.0,92,0.00,FEW,,0.00,WeatherDisplay:10.37,2013-08-05 03:25:00,
2013-08-04 23:30:00,52.9,50.6,30.03,North,349,0.0,0.0,92,0.00,FEW,,0.00,WeatherDisplay:10.37,2013-08-05 03:30:00,
2013-08-04 23:35:00,52.8,50.5,30.03,North,349,0.0,0.0,92,0.00,FEW,,0.00,WeatherDisplay:10.37,2013-08-05 03:35:00,
2013-08-04 23:40:00,52.8,50.5,30.04,North,349,0.0,0.0,92,0.00,FEW,,0.00,WeatherDisplay:10.37,2013-08-05 03:40:00,
2013-08-04 23:45:00,52.7,50.4,30.04,North,349,0.0,0.0,92,0.00,FEW,,0.00,WeatherDisplay:10.37,2013-08-05 03:45:00,
2013-08-04 23:50:00,52.6,50.3,30.04,North,349,0.0,0.0,92,0.00,FEW,,0.00,WeatherDisplay:10.37,2013-08-05 03:50:00,
2013-08-04 23:55:00,52.6,50.3,30.04,North,349,0.0,0.0,92,0.00,FEW,,0.00,WeatherDisplay:10.37,2013-08-05 03:55:00,